• pl
  • eng

Awiacja
TAF dla lotnisk wojskowych 08:07 16.12.2017

TAF EPCE 160500Z 1606/1615 22008KT 9999 BKN008 OVC020 PROB30 TEMPO
1611/1615 23010KT 4000 -SN BR BKN006 OVC009 =

TAF EPDA 160500Z 1606/1615 21012KT 9999 BKN010 BKN015 TEMPO
1606/1610 5000 BR BKN007 =

TAF EPDE 110800Z 17014KT CAVOK
TEMPO 1109/115 17016G28KT=

TAF COR EPKS 160500Z 1606/1615 26008KT 4000 BR BKN004 OVC010
PROB40 1606/1608 2000 BR BKN002
BECMG 1609/1611 6000 SCT007 BKN015=

TAF EPLY 160500Z 1606/1615 27008KT 8000 SCT008 BKN013 PROB40
1606/1608 3000 BR BKN005=

TAF EPMB 160500Z 1606/1615 22008KT 3000 BR BKN004 OVC010 PROB30
1606/1608 1000 BR -SN BECMG 1608/1610 5000 BR SCT007 BKN013
OVC100=

TAF EPMI 302300Z 3100/0109 30008KT 2000 BR BKN003 OVC010 TEMPO
0100/0109 1500 SHRA BR BKN002 OVC010=

TAF EPMM 160500Z 1606/1615 29006KT 3000 BR BKN005 OVC012 TEMPO
1606/1609 BKN004 PROB30 TEMPO 1606/1608 0800 FG BKN003 BECMG
1610/1612 6000 BKN007 OVC015 PROB40 TEMPO 1609/1615 3000 -SN
RASN BKN006 =

TAF EPOK 160500Z 1606/1615 24010KT 9999 BKN015 PROB30 1606/1615
5000 -RASN -SN BKN010 =

TAF EPPW 160500Z 1606/1615 26006KT 3000 BR BKN005 OVC012 PROB40
1606/1608 1500 BR BKN003 BECMG 1609/1611 6000 BKN007 BKN016 =

TAF EPSN 160500Z 1606/1615 22010KT 9999 BKN012 TEMPO 1606/1610 3000
RASN BKN004 =
Awiacja.imgw.pl jest pogodowym serwisem informacyjnym
Instytutu Meteorologii i Gospodarki Wodnej Państwowego Instytutu Badawczego.
Copyright IMGW PIB 2009-2011© Wszelkie prawa zastrzeżone.